sensor_id;sensor_type;location;lat;lon;timestamp;pressure;altitude;pressure_sealevel;temperature;humidity
45523;BME280;31254;51.680;5.394;2023-04-25T00:00:09;101131.81;;;5.92;86.02
45523;BME280;31254;51.680;5.394;2023-04-25T00:02:36;101093.84;;;5.67;85.87
45523;BME280;31254;51.680;5.394;2023-04-25T00:05:04;101124.34;;;5.82;86.02
45523;BME280;31254;51.680;5.394;2023-04-25T00:07:31;101122.31;;;5.73;86.60
45523;BME280;31254;51.680;5.394;2023-04-25T00:10:02;101108.91;;;5.59;86.40
45523;BME280;31254;51.680;5.394;2023-04-25T00:12:29;101127.31;;;5.66;86.97
45523;BME280;31254;51.680;5.394;2023-04-25T00:14:56;101145.72;;;5.74;87.34
45523;BME280;31254;51.680;5.394;2023-04-25T00:17:23;101139.88;;;5.67;86.88
45523;BME280;31254;51.680;5.394;2023-04-25T00:19:53;101145.41;;;5.66;87.08
45523;BME280;31254;51.680;5.394;2023-04-25T00:22:23;101150.06;;;5.64;86.98
45523;BME280;31254;51.680;5.394;2023-04-25T00:24:52;101144.34;;;5.56;86.91
45523;BME280;31254;51.680;5.394;2023-04-25T00:27:20;101146.16;;;5.55;86.83
45523;BME280;31254;51.680;5.394;2023-04-25T00:29:46;101138.38;;;5.50;87.06
45523;BME280;31254;51.680;5.394;2023-04-25T00:32:13;101107.97;;;5.34;87.32
45523;BME280;31254;51.680;5.394;2023-04-25T00:34:40;101153.22;;;5.58;87.30
45523;BME280;31254;51.680;5.394;2023-04-25T00:37:07;101145.09;;;5.58;86.86
45523;BME280;31254;51.680;5.394;2023-04-25T00:39:33;101150.41;;;5.59;87.33
45523;BME280;31254;51.680;5.394;2023-04-25T00:42:00;101145.41;;;5.53;87.39
45523;BME280;31254;51.680;5.394;2023-04-25T00:44:29;101131.78;;;5.42;87.75
45523;BME280;31254;51.680;5.394;2023-04-25T00:46:57;101131.16;;;5.38;87.47
45523;BME280;31254;51.680;5.394;2023-04-25T00:49:26;101141.44;;;5.46;88.08
45523;BME280;31254;51.680;5.394;2023-04-25T00:51:53;101146.16;;;5.42;87.93
45523;BME280;31254;51.680;5.394;2023-04-25T00:54:20;101140.22;;;5.37;88.12
45523;BME280;31254;51.680;5.394;2023-04-25T00:56:47;101144.69;;;5.38;87.87
45523;BME280;31254;51.680;5.394;2023-04-25T00:59:15;101145.63;;;5.37;87.88
45523;BME280;31254;51.680;5.394;2023-04-25T01:01:41;101150.72;;;5.29;87.95
45523;BME280;31254;51.680;5.394;2023-04-25T01:04:10;101143.38;;;5.31;88.27
45523;BME280;31254;51.680;5.394;2023-04-25T01:06:37;101155.81;;;5.34;88.13
45523;BME280;31254;51.680;5.394;2023-04-25T01:09:04;101141.00;;;5.26;88.15
45523;BME280;31254;51.680;5.394;2023-04-25T01:11:31;101149.78;;;5.30;88.62
45523;BME280;31254;51.680;5.394;2023-04-25T01:13:58;101108.09;;;5.07;88.32
45523;BME280;31254;51.680;5.394;2023-04-25T01:16:28;101142.94;;;5.37;87.85
45523;BME280;31254;51.680;5.394;2023-04-25T01:18:56;101140.44;;;5.47;88.11
45523;BME280;31254;51.680;5.394;2023-04-25T01:21:23;101156.13;;;5.55;87.79
45523;BME280;31254;51.680;5.394;2023-04-25T01:23:53;101138.38;;;5.50;87.76
45523;BME280;31254;51.680;5.394;2023-04-25T01:26:21;101159.38;;;5.60;87.55
45523;BME280;31254;51.680;5.394;2023-04-25T01:28:48;101164.34;;;5.66;87.59
45523;BME280;31254;51.680;5.394;2023-04-25T01:31:15;101172.16;;;5.71;87.60
45523;BME280;31254;51.680;5.394;2023-04-25T01:33:43;101142.72;;;5.53;87.74
45523;BME280;31254;51.680;5.394;2023-04-25T01:36:10;101159.69;;;5.68;87.33
45523;BME280;31254;51.680;5.394;2023-04-25T01:38:37;101173.31;;;5.79;87.31
45523;BME280;31254;51.680;5.394;2023-04-25T01:41:07;101169.75;;;5.79;87.34
45523;BME280;31254;51.680;5.394;2023-04-25T01:43:34;101171.94;;;5.74;87.88
45523;BME280;31254;51.680;5.394;2023-04-25T01:46:02;101161.00;;;5.62;87.66
45523;BME280;31254;51.680;5.394;2023-04-25T01:48:29;101180.59;;;5.66;88.12
45523;BME280;31254;51.680;5.394;2023-04-25T01:50:55;101172.91;;;5.60;87.73
45523;BME280;31254;51.680;5.394;2023-04-25T01:53:22;101160.25;;;5.47;88.10
45523;BME280;31254;51.680;5.394;2023-04-25T01:55:50;101174.66;;;5.48;88.45
45523;BME280;31254;51.680;5.394;2023-04-25T01:58:17;101187.97;;;5.51;88.17
45523;BME280;31254;51.680;5.394;2023-04-25T02:00:43;101186.34;;;5.48;88.31
45523;BME280;31254;51.680;5.394;2023-04-25T02:03:11;101186.97;;;5.52;88.26
45523;BME280;31254;51.680;5.394;2023-04-25T02:05:39;101189.03;;;5.48;88.22
45523;BME280;31254;51.680;5.394;2023-04-25T02:08:09;101188.41;;;5.45;88.08
45523;BME280;31254;51.680;5.394;2023-04-25T02:10:38;101175.81;;;5.31;88.44
45523;BME280;31254;51.680;5.394;2023-04-25T02:13:07;101197.06;;;5.37;87.99
45523;BME280;31254;51.680;5.394;2023-04-25T02:15:36;101191.19;;;5.30;88.88
45523;BME280;31254;51.680;5.394;2023-04-25T02:18:06;101190.78;;;5.24;88.41
45523;BME280;31254;51.680;5.394;2023-04-25T02:20:33;101202.56;;;5.23;88.78
45523;BME280;31254;51.680;5.394;2023-04-25T02:23:01;101202.22;;;5.15;88.87
45523;BME280;31254;51.680;5.394;2023-04-25T02:25:28;101199.72;;;5.11;88.46
45523;BME280;31254;51.680;5.394;2023-04-25T02:27:55;101203.63;;;5.07;88.59
45523;BME280;31254;51.680;5.394;2023-04-25T02:30:24;101204.50;;;5.08;88.63
45523;BME280;31254;51.680;5.394;2023-04-25T02:32:52;101211.97;;;5.04;88.91
45523;BME280;31254;51.680;5.394;2023-04-25T02:35:19;101191.81;;;4.95;88.82
45523;BME280;31254;51.680;5.394;2023-04-25T02:37:48;101210.41;;;5.00;89.59
45523;BME280;31254;51.680;5.394;2023-04-25T02:40:20;101179.25;;;4.82;89.00
45523;BME280;31254;51.680;5.394;2023-04-25T02:42:46;101171.97;;;4.69;89.89
45523;BME280;31254;51.680;5.394;2023-04-25T02:45:13;101202.28;;;4.87;89.97
45523;BME280;31254;51.680;5.394;2023-04-25T02:47:45;101205.66;;;4.91;90.20
45523;BME280;31254;51.680;5.394;2023-04-25T02:50:14;101209.31;;;4.90;90.15
45523;BME280;31254;51.680;5.394;2023-04-25T02:52:43;101209.31;;;4.90;89.98
45523;BME280;31254;51.680;5.394;2023-04-25T02:55:10;101198.28;;;4.80;90.36
45523;BME280;31254;51.680;5.394;2023-04-25T02:57:37;101208.56;;;4.88;90.08
45523;BME280;31254;51.680;5.394;2023-04-25T03:00:04;101198.72;;;4.87;90.10
45523;BME280;31254;51.680;5.394;2023-04-25T03:02:32;101209.56;;;5.00;89.78
45523;BME280;31254;51.680;5.394;2023-04-25T03:04:58;101184.03;;;4.91;89.24
45523;BME280;31254;51.680;5.394;2023-04-25T03:07:25;101206.13;;;5.10;89.28
45523;BME280;31254;51.680;5.394;2023-04-25T03:09:54;101190.97;;;5.08;89.68
45523;BME280;31254;51.680;5.394;2023-04-25T03:12:22;101193.34;;;5.12;89.34
45523;BME280;31254;51.680;5.394;2023-04-25T03:14:51;101168.47;;;4.94;89.04
45523;BME280;31254;51.680;5.394;2023-04-25T03:17:25;101189.00;;;5.10;89.43
45523;BME280;31254;51.680;5.394;2023-04-25T03:19:51;101211.47;;;5.25;89.55
45523;BME280;31254;51.680;5.394;2023-04-25T03:22:18;101194.88;;;5.17;89.29
45523;BME280;31254;51.680;5.394;2023-04-25T03:24:45;101214.16;;;5.25;89.24
45523;BME280;31254;51.680;5.394;2023-04-25T03:27:12;101210.88;;;5.20;89.31
45523;BME280;31254;51.680;5.394;2023-04-25T03:29:38;101214.88;;;5.14;89.90
45523;BME280;31254;51.680;5.394;2023-04-25T03:32:06;101213.34;;;5.10;89.64
45523;BME280;31254;51.680;5.394;2023-04-25T03:34:35;101211.19;;;5.02;89.87
45523;BME280;31254;51.680;5.394;2023-04-25T03:37:02;101189.66;;;4.88;90.58
45523;BME280;31254;51.680;5.394;2023-04-25T03:39:29;101177.06;;;4.74;90.43
45523;BME280;31254;51.680;5.394;2023-04-25T03:41:56;101202.97;;;4.91;90.53
45523;BME280;31254;51.680;5.394;2023-04-25T03:44:22;101211.50;;;4.98;89.85
45523;BME280;31254;51.680;5.394;2023-04-25T03:46:50;101207.72;;;5.00;90.20
45523;BME280;31254;51.680;5.394;2023-04-25T03:49:17;101156.38;;;4.73;90.27
45523;BME280;31254;51.680;5.394;2023-04-25T03:51:46;101208.72;;;4.99;89.56
45523;BME280;31254;51.680;5.394;2023-04-25T03:54:13;101183.44;;;4.86;90.46
45523;BME280;31254;51.680;5.394;2023-04-25T03:56:39;101187.34;;;4.82;90.00
45523;BME280;31254;51.680;5.394;2023-04-25T03:59:06;101219.06;;;4.92;90.23
45523;BME280;31254;51.680;5.394;2023-04-25T04:01:37;101210.38;;;4.87;89.95
45523;BME280;31254;51.680;5.394;2023-04-25T04:04:04;101226.31;;;4.92;90.60
45523;BME280;31254;51.680;5.394;2023-04-25T04:06:31;101226.31;;;4.92;90.49
45523;BME280;31254;51.680;5.394;2023-04-25T04:08:58;101232.50;;;4.94;90.06
45523;BME280;31254;51.680;5.394;2023-04-25T04:11:25;101233.16;;;4.98;90.48
45523;BME280;31254;51.680;5.394;2023-04-25T04:13:52;101226.31;;;4.92;90.28
45523;BME280;31254;51.680;5.394;2023-04-25T04:16:19;101232.06;;;5.00;90.43
45523;BME280;31254;51.680;5.394;2023-04-25T04:18:48;101245.25;;;5.05;90.43
45523;BME280;31254;51.680;5.394;2023-04-25T04:21:17;101247.00;;;5.06;89.93
45523;BME280;31254;51.680;5.394;2023-04-25T04:23:44;101243.66;;;5.02;90.07
45523;BME280;31254;51.680;5.394;2023-04-25T04:26:11;101245.91;;;5.08;89.64
45523;BME280;31254;51.680;5.394;2023-04-25T04:28:39;101226.63;;;5.00;89.59
45523;BME280;31254;51.680;5.394;2023-04-25T04:31:06;101250.06;;;5.14;89.72
45523;BME280;31254;51.680;5.394;2023-04-25T04:33:34;101239.34;;;5.12;89.83
45523;BME280;31254;51.680;5.394;2023-04-25T04:36:01;101234.88;;;5.11;89.60
45523;BME280;31254;51.680;5.394;2023-04-25T04:38:29;101260.91;;;5.27;89.62
45523;BME280;31254;51.680;5.394;2023-04-25T04:40:59;101251.78;;;5.28;89.29
45523;BME280;31254;51.680;5.394;2023-04-25T04:43:25;101264.47;;;5.40;89.48
45523;BME280;31254;51.680;5.394;2023-04-25T04:45:54;101245.75;;;5.37;88.81
45523;BME280;31254;51.680;5.394;2023-04-25T04:48:22;101259.63;;;5.45;89.24
45523;BME280;31254;51.680;5.394;2023-04-25T04:50:49;101255.41;;;5.41;89.00
45523;BME280;31254;51.680;5.394;2023-04-25T04:53:16;101256.38;;;5.40;89.05
45523;BME280;31254;51.680;5.394;2023-04-25T04:55:42;101267.53;;;5.48;88.75
45523;BME280;31254;51.680;5.394;2023-04-25T04:58:14;101242.72;;;5.42;88.71
45523;BME280;31254;51.680;5.394;2023-04-25T05:00:44;101267.63;;;5.60;88.24
45523;BME280;31254;51.680;5.394;2023-04-25T05:03:11;101271.41;;;5.70;87.67
45523;BME280;31254;51.680;5.394;2023-04-25T05:05:41;101273.50;;;5.79;87.62
45523;BME280;31254;51.680;5.394;2023-04-25T05:08:08;101267.63;;;5.85;87.25
45523;BME280;31254;51.680;5.394;2023-04-25T05:10:34;101260.94;;;5.78;86.87
45523;BME280;31254;51.680;5.394;2023-04-25T05:13:04;101273.16;;;5.84;86.76
45523;BME280;31254;51.680;5.394;2023-04-25T05:15:33;101287.59;;;5.97;86.75
45523;BME280;31254;51.680;5.394;2023-04-25T05:18:00;101283.25;;;5.95;86.45
45523;BME280;31254;51.680;5.394;2023-04-25T05:20:27;101299.41;;;6.09;86.15
45523;BME280;31254;51.680;5.394;2023-04-25T05:22:56;101303.63;;;6.13;85.90
45523;BME280;31254;51.680;5.394;2023-04-25T05:25:23;101310.34;;;6.20;85.63
45523;BME280;31254;51.680;5.394;2023-04-25T05:27:50;101312.25;;;6.31;85.53
45523;BME280;31254;51.680;5.394;2023-04-25T05:30:19;101304.03;;;6.33;84.89
45523;BME280;31254;51.680;5.394;2023-04-25T05:32:48;101315.25;;;6.52;84.46
45523;BME280;31254;51.680;5.394;2023-04-25T05:35:14;101315.56;;;6.61;84.19
45523;BME280;31254;51.680;5.394;2023-04-25T05:37:44;101319.13;;;6.74;83.33
45523;BME280;31254;51.680;5.394;2023-04-25T05:40:13;101331.06;;;6.95;83.02
45523;BME280;31254;51.680;5.394;2023-04-25T05:42:40;101326.66;;;7.06;82.54
45523;BME280;31254;51.680;5.394;2023-04-25T05:45:06;101312.94;;;6.96;82.25
45523;BME280;31254;51.680;5.394;2023-04-25T05:47:35;101327.78;;;7.03;81.77
45523;BME280;31254;51.680;5.394;2023-04-25T05:50:03;101330.66;;;7.13;81.82
45523;BME280;31254;51.680;5.394;2023-04-25T05:52:30;101316.69;;;10.28;71.92
45523;BME280;31254;51.680;5.394;2023-04-25T05:54:56;101289.84;;;13.12;63.13
45523;BME280;31254;51.680;5.394;2023-04-25T05:57:24;101312.22;;;15.09;58.23
45523;BME280;31254;51.680;5.394;2023-04-25T05:59:52;101327.06;;;15.90;56.06
45523;BME280;31254;51.680;5.394;2023-04-25T06:02:20;101322.81;;;14.95;58.53
45523;BME280;31254;51.680;5.394;2023-04-25T06:04:52;101324.03;;;13.35;62.94
45523;BME280;31254;51.680;5.394;2023-04-25T06:07:19;101328.69;;;12.52;65.40
45523;BME280;31254;51.680;5.394;2023-04-25T06:09:51;101319.44;;;11.58;67.40
45523;BME280;31254;51.680;5.394;2023-04-25T06:12:17;101334.50;;;12.39;65.22
45523;BME280;31254;51.680;5.394;2023-04-25T06:14:44;101306.59;;;14.07;60.07
45523;BME280;31254;51.680;5.394;2023-04-25T06:17:11;101328.59;;;16.73;53.87
45523;BME280;31254;51.680;5.394;2023-04-25T06:19:38;101289.06;;;17.44;51.08
45523;BME280;31254;51.680;5.394;2023-04-25T06:22:07;101330.78;;;18.40;49.51
45523;BME280;31254;51.680;5.394;2023-04-25T06:24:34;101320.09;;;19.33;47.82
45523;BME280;31254;51.680;5.394;2023-04-25T06:27:01;101315.97;;;20.85;45.09
45523;BME280;31254;51.680;5.394;2023-04-25T06:29:27;101312.13;;;21.95;42.71
45523;BME280;31254;51.680;5.394;2023-04-25T06:31:54;101324.72;;;22.44;41.65
45523;BME280;31254;51.680;5.394;2023-04-25T06:34:21;101326.22;;;22.53;40.92
45523;BME280;31254;51.680;5.394;2023-04-25T06:36:48;101330.09;;;22.97;40.14
45523;BME280;31254;51.680;5.394;2023-04-25T06:39:14;101329.44;;;22.10;40.94
45523;BME280;31254;51.680;5.394;2023-04-25T06:41:41;101341.59;;;19.96;43.95
45523;BME280;31254;51.680;5.394;2023-04-25T06:44:08;101334.38;;;20.01;44.25
45523;BME280;31254;51.680;5.394;2023-04-25T06:46:37;101327.09;;;21.87;40.72
45523;BME280;31254;51.680;5.394;2023-04-25T06:49:04;101337.53;;;22.58;39.15
45523;BME280;31254;51.680;5.394;2023-04-25T06:51:31;101343.13;;;21.98;39.80
45523;BME280;31254;51.680;5.394;2023-04-25T06:54:00;101348.25;;;23.13;37.81
45523;BME280;31254;51.680;5.394;2023-04-25T06:56:28;101336.91;;;23.47;37.41
45523;BME280;31254;51.680;5.394;2023-04-25T06:58:56;101345.31;;;24.29;35.93
45523;BME280;31254;51.680;5.394;2023-04-25T07:01:25;101339.91;;;22.15;38.48
45523;BME280;31254;51.680;5.394;2023-04-25T07:03:52;101365.13;;;19.27;43.59
45523;BME280;31254;51.680;5.394;2023-04-25T07:06:21;101366.72;;;18.70;44.05
45523;BME280;31254;51.680;5.394;2023-04-25T07:08:52;101351.88;;;19.22;43.13
45523;BME280;31254;51.680;5.394;2023-04-25T07:11:19;101371.22;;;19.59;42.42
45523;BME280;31254;51.680;5.394;2023-04-25T07:13:47;101366.22;;;19.47;42.02
45523;BME280;31254;51.680;5.394;2023-04-25T07:16:17;101369.06;;;20.82;39.38
45523;BME280;31254;51.680;5.394;2023-04-25T07:18:43;101376.75;;;21.35;38.69
45523;BME280;31254;51.680;5.394;2023-04-25T07:21:11;101384.63;;;21.38;37.37
45523;BME280;31254;51.680;5.394;2023-04-25T07:23:37;101371.78;;;22.32;36.59
45523;BME280;31254;51.680;5.394;2023-04-25T07:26:07;101385.28;;;20.57;38.84
45523;BME280;31254;51.680;5.394;2023-04-25T07:28:34;101390.97;;;20.70;38.87
45523;BME280;31254;51.680;5.394;2023-04-25T07:31:01;101305.56;;;21.00;37.50
45523;BME280;31254;51.680;5.394;2023-04-25T07:33:28;101383.06;;;22.04;36.37
45523;BME280;31254;51.680;5.394;2023-04-25T07:35:55;101377.75;;;23.21;34.74
45523;BME280;31254;51.680;5.394;2023-04-25T07:38:22;101401.38;;;22.92;34.78
45523;BME280;31254;51.680;5.394;2023-04-25T07:40:49;101405.38;;;20.37;38.68
45523;BME280;31254;51.680;5.394;2023-04-25T07:43:16;101404.16;;;19.17;41.11
45523;BME280;31254;51.680;5.394;2023-04-25T07:45:44;101430.97;;;17.33;44.03
45523;BME280;31254;51.680;5.394;2023-04-25T07:48:10;101419.94;;;15.80;46.85
45523;BME280;31254;51.680;5.394;2023-04-25T07:50:37;101434.81;;;14.49;48.41
45523;BME280;31254;51.680;5.394;2023-04-25T07:53:04;101437.34;;;13.80;49.71
45523;BME280;31254;51.680;5.394;2023-04-25T07:55:31;101439.69;;;13.29;50.90
45523;BME280;31254;51.680;5.394;2023-04-25T07:57:57;101399.41;;;12.84;51.87
45523;BME280;31254;51.680;5.394;2023-04-25T08:00:28;101436.81;;;13.03;52.47
45523;BME280;31254;51.680;5.394;2023-04-25T08:02:55;101452.13;;;12.96;53.06
45523;BME280;31254;51.680;5.394;2023-04-25T08:05:24;101452.66;;;12.72;53.38
45523;BME280;31254;51.680;5.394;2023-04-25T08:07:51;101454.84;;;12.58;54.58
45523;BME280;31254;51.680;5.394;2023-04-25T08:10:18;101453.00;;;12.59;55.07
45523;BME280;31254;51.680;5.394;2023-04-25T08:12:45;101450.28;;;12.49;55.46
45523;BME280;31254;51.680;5.394;2023-04-25T08:15:12;101463.28;;;12.85;55.00
45523;BME280;31254;51.680;5.394;2023-04-25T08:17:40;101446.19;;;12.63;55.17
45523;BME280;31254;51.680;5.394;2023-04-25T08:20:10;101449.84;;;12.54;55.30
45523;BME280;31254;51.680;5.394;2023-04-25T08:22:37;101467.50;;;12.69;55.07
45523;BME280;31254;51.680;5.394;2023-04-25T08:25:04;101470.75;;;12.83;54.86
45523;BME280;31254;51.680;5.394;2023-04-25T08:27:31;101473.84;;;13.07;54.46
45523;BME280;31254;51.680;5.394;2023-04-25T08:29:57;101471.34;;;12.86;54.16
45523;BME280;31254;51.680;5.394;2023-04-25T08:32:25;101481.66;;;12.92;54.04
45523;BME280;31254;51.680;5.394;2023-04-25T08:34:54;101468.47;;;12.88;54.08
45523;BME280;31254;51.680;5.394;2023-04-25T08:37:21;101473.16;;;13.23;53.47
45523;BME280;31254;51.680;5.394;2023-04-25T08:39:53;101489.09;;;13.47;52.81
45523;BME280;31254;51.680;5.394;2023-04-25T08:42:21;101483.00;;;14.07;51.85
45523;BME280;31254;51.680;5.394;2023-04-25T08:44:48;101478.41;;;16.06;46.95
45523;BME280;31254;51.680;5.394;2023-04-25T08:47:18;101485.59;;;16.90;45.26
45523;BME280;31254;51.680;5.394;2023-04-25T08:49:49;101490.94;;;17.39;43.76
45523;BME280;31254;51.680;5.394;2023-04-25T08:52:22;101493.81;;;17.46;43.45
45523;BME280;31254;51.680;5.394;2023-04-25T08:54:53;101495.97;;;17.98;42.69
45523;BME280;31254;51.680;5.394;2023-04-25T08:57:21;101494.19;;;18.67;40.97
45523;BME280;31254;51.680;5.394;2023-04-25T08:59:51;101493.50;;;18.26;41.02
45523;BME280;31254;51.680;5.394;2023-04-25T09:02:18;101507.44;;;18.56;40.65
45523;BME280;31254;51.680;5.394;2023-04-25T09:04:47;101512.81;;;17.41;42.42
45523;BME280;31254;51.680;5.394;2023-04-25T09:07:14;101513.75;;;14.99;47.06
45523;BME280;31254;51.680;5.394;2023-04-25T09:09:47;101539.94;;;13.60;51.21
45523;BME280;31254;51.680;5.394;2023-04-25T09:12:14;101555.97;;;12.50;53.79
45523;BME280;31254;51.680;5.394;2023-04-25T09:14:40;101550.16;;;11.75;55.42
45523;BME280;31254;51.680;5.394;2023-04-25T09:17:10;101563.28;;;11.41;56.88
45523;BME280;31254;51.680;5.394;2023-04-25T09:19:37;101564.41;;;11.07;57.57
45523;BME280;31254;51.680;5.394;2023-04-25T09:22:08;101580.16;;;10.94;57.95
45523;BME280;31254;51.680;5.394;2023-04-25T09:24:39;101525.38;;;11.16;56.62
45523;BME280;31254;51.680;5.394;2023-04-25T09:27:18;101559.00;;;12.28;54.59
45523;BME280;31254;51.680;5.394;2023-04-25T09:29:47;101553.41;;;13.15;52.38
45523;BME280;31254;51.680;5.394;2023-04-25T09:32:20;101572.38;;;13.27;51.40
45523;BME280;31254;51.680;5.394;2023-04-25T09:34:53;101575.03;;;13.19;51.98
45523;BME280;31254;51.680;5.394;2023-04-25T09:37:22;101572.53;;;14.08;49.56
45523;BME280;31254;51.680;5.394;2023-04-25T09:39:53;101572.16;;;14.21;49.54
45523;BME280;31254;51.680;5.394;2023-04-25T09:42:25;101548.66;;;14.37;49.46
45523;BME280;31254;51.680;5.394;2023-04-25T09:44:54;101564.94;;;14.02;50.15
45523;BME280;31254;51.680;5.394;2023-04-25T09:47:26;101537.97;;;13.98;49.69
45523;BME280;31254;51.680;5.394;2023-04-25T09:49:53;101564.53;;;14.51;49.02
45523;BME280;31254;51.680;5.394;2023-04-25T09:52:24;101557.56;;;14.75;48.48
45523;BME280;31254;51.680;5.394;2023-04-25T09:54:52;101569.41;;;14.75;48.38
45523;BME280;31254;51.680;5.394;2023-04-25T09:57:24;101505.22;;;14.14;48.42
45523;BME280;31254;51.680;5.394;2023-04-25T09:59:53;101563.00;;;14.13;48.29
45523;BME280;31254;51.680;5.394;2023-04-25T10:02:22;101533.97;;;13.92;47.53
45523;BME280;31254;51.680;5.394;2023-04-25T10:04:51;101557.44;;;14.22;47.65
45523;BME280;31254;51.680;5.394;2023-04-25T10:07:23;101561.25;;;14.30;48.11
45523;BME280;31254;51.680;5.394;2023-04-25T10:09:59;101560.94;;;14.33;48.09
45523;BME280;31254;51.680;5.394;2023-04-25T10:12:31;101558.22;;;14.33;47.55
45523;BME280;31254;51.680;5.394;2023-04-25T10:14:59;101560.06;;;14.50;46.80
45523;BME280;31254;51.680;5.394;2023-04-25T10:17:27;101546.38;;;14.32;46.00
45523;BME280;31254;51.680;5.394;2023-04-25T10:19:56;101558.38;;;14.13;47.18
45523;BME280;31254;51.680;5.394;2023-04-25T10:22:29;101531.22;;;14.10;47.33
45523;BME280;31254;51.680;5.394;2023-04-25T10:24:57;101547.22;;;14.51;46.84
45523;BME280;31254;51.680;5.394;2023-04-25T10:27:27;101564.63;;;15.04;46.45
45523;BME280;31254;51.680;5.394;2023-04-25T10:30:13;101552.00;;;15.19;45.64
45523;BME280;31254;51.680;5.394;2023-04-25T10:32:43;101566.53;;;14.85;45.97
45523;BME280;31254;51.680;5.394;2023-04-25T10:35:12;101570.91;;;14.34;46.00
45523;BME280;31254;51.680;5.394;2023-04-25T10:38:03;101587.31;;;13.52;47.05
45523;BME280;31254;51.680;5.394;2023-04-25T10:40:31;101587.19;;;12.96;47.94
45523;BME280;31254;51.680;5.394;2023-04-25T10:51:24;101615.16;;;11.71;52.03
45523;BME280;31254;51.680;5.394;2023-04-25T10:56:31;101620.19;;;11.66;52.12
45523;BME280;31254;51.680;5.394;2023-04-25T11:01:51;101617.78;;;11.83;51.37
45523;BME280;31254;51.680;5.394;2023-04-25T11:04:22;101580.72;;;11.59;50.30
45523;BME280;31254;51.680;5.394;2023-04-25T11:10:05;101635.81;;;11.95;50.12
45523;BME280;31254;51.680;5.394;2023-04-25T11:12:34;101631.03;;;11.78;50.24
45523;BME280;31254;51.680;5.394;2023-04-25T11:15:06;101612.75;;;11.78;50.16
45523;BME280;31254;51.680;5.394;2023-04-25T11:17:35;101617.31;;;12.09;49.73
45523;BME280;31254;51.680;5.394;2023-04-25T11:20:02;101616.31;;;12.29;49.81
45523;BME280;31254;51.680;5.394;2023-04-25T11:22:36;101632.75;;;12.49;49.80
45523;BME280;31254;51.680;5.394;2023-04-25T11:25:08;101628.56;;;12.64;49.33
45523;BME280;31254;51.680;5.394;2023-04-25T11:30:21;101627.25;;;12.68;48.20
45523;BME280;31254;51.680;5.394;2023-04-25T11:32:48;101619.75;;;12.99;48.09
45523;BME280;31254;51.680;5.394;2023-04-25T11:35:16;101630.38;;;13.22;47.71
45523;BME280;31254;51.680;5.394;2023-04-25T11:37:43;101600.41;;;13.11;47.35
45523;BME280;31254;51.680;5.394;2023-04-25T11:40:11;101608.72;;;13.29;47.39
45523;BME280;31254;51.680;5.394;2023-04-25T11:42:45;101618.84;;;13.19;47.56
45523;BME280;31254;51.680;5.394;2023-04-25T11:45:13;101608.00;;;13.27;47.82
45523;BME280;31254;51.680;5.394;2023-04-25T11:47:40;101580.88;;;12.86;48.26
45523;BME280;31254;51.680;5.394;2023-04-25T11:50:08;101635.03;;;12.92;47.96
45523;BME280;31254;51.680;5.394;2023-04-25T11:52:45;101635.31;;;13.09;46.90
45523;BME280;31254;51.680;5.394;2023-04-25T11:57:43;101629.47;;;13.22;43.86
45523;BME280;31254;51.680;5.394;2023-04-25T12:00:15;101624.47;;;13.17;42.96
45523;BME280;31254;51.680;5.394;2023-04-25T12:02:47;101645.25;;;13.10;43.94
45523;BME280;31254;51.680;5.394;2023-04-25T12:05:15;101621.06;;;12.76;42.16
45523;BME280;31254;51.680;5.394;2023-04-25T12:07:57;101632.59;;;12.99;43.14
45523;BME280;31254;51.680;5.394;2023-04-25T12:10:24;101654.31;;;13.01;42.96
45523;BME280;31254;51.680;5.394;2023-04-25T12:12:52;101644.72;;;12.87;43.37
45523;BME280;31254;51.680;5.394;2023-04-25T12:15:24;101649.75;;;12.72;43.59
45523;BME280;31254;51.680;5.394;2023-04-25T12:17:53;101648.56;;;12.94;44.16
45523;BME280;31254;51.680;5.394;2023-04-25T12:20:31;101646.28;;;12.99;44.26
45523;BME280;31254;51.680;5.394;2023-04-25T12:22:58;101643.38;;;12.91;43.96
45523;BME280;31254;51.680;5.394;2023-04-25T12:25:38;101652.63;;;12.90;44.59
45523;BME280;31254;51.680;5.394;2023-04-25T12:28:18;101663.44;;;12.82;46.17
45523;BME280;31254;51.680;5.394;2023-04-25T12:31:03;101664.72;;;12.87;47.13
45523;BME280;31254;51.680;5.394;2023-04-25T12:33:33;101669.91;;;12.90;47.54
45523;BME280;31254;51.680;5.394;2023-04-25T12:36:03;101675.25;;;12.92;47.81
45523;BME280;31254;51.680;5.394;2023-04-25T12:38:41;101680.44;;;12.85;47.84
45523;BME280;31254;51.680;5.394;2023-04-25T12:41:10;101685.06;;;12.65;48.04
45523;BME280;31254;51.680;5.394;2023-04-25T12:43:39;101662.00;;;12.48;47.89
45523;BME280;31254;51.680;5.394;2023-04-25T12:46:07;101687.03;;;12.43;47.65
45523;BME280;31254;51.680;5.394;2023-04-25T12:48:34;101677.28;;;12.51;47.61
45523;BME280;31254;51.680;5.394;2023-04-25T12:51:01;101665.63;;;12.78;46.92
45523;BME280;31254;51.680;5.394;2023-04-25T12:53:28;101678.25;;;12.98;46.64
45523;BME280;31254;51.680;5.394;2023-04-25T12:55:54;101667.16;;;13.00;45.87
45523;BME280;31254;51.680;5.394;2023-04-25T12:58:21;101685.44;;;13.29;45.88
45523;BME280;31254;51.680;5.394;2023-04-25T13:00:47;101681.13;;;13.36;45.63
45523;BME280;31254;51.680;5.394;2023-04-25T13:03:17;101668.84;;;13.40;45.48
45523;BME280;31254;51.680;5.394;2023-04-25T13:05:44;101678.50;;;13.44;45.87
45523;BME280;31254;51.680;5.394;2023-04-25T13:08:11;101674.22;;;13.22;46.03
45523;BME280;31254;51.680;5.394;2023-04-25T13:10:40;101681.75;;;13.10;46.33
45523;BME280;31254;51.680;5.394;2023-04-25T13:13:09;101662.88;;;12.97;46.38
45523;BME280;31254;51.680;5.394;2023-04-25T13:15:35;101662.56;;;12.91;47.16
45523;BME280;31254;51.680;5.394;2023-04-25T13:18:03;101595.00;;;12.82;46.54
45523;BME280;31254;51.680;5.394;2023-04-25T13:20:32;101659.22;;;13.16;45.30
45523;BME280;31254;51.680;5.394;2023-04-25T13:23:02;101654.94;;;12.75;44.67